sensor_id;sensor_type;location;lat;lon;timestamp;P1;durP1;ratioP1;P2;durP2;ratioP2
66112;SDS011;52893;52.870;5.822;2022-08-21T00:00:24;7.95;;;3.67;;
66112;SDS011;52893;52.870;5.822;2022-08-21T00:02:54;6.75;;;2.85;;
66112;SDS011;52893;52.870;5.822;2022-08-21T00:05:24;7.07;;;3.25;;
66112;SDS011;52893;52.870;5.822;2022-08-21T00:07:52;8.60;;;3.15;;
66112;SDS011;52893;52.870;5.822;2022-08-21T00:10:19;7.72;;;3.00;;
66112;SDS011;52893;52.870;5.822;2022-08-21T00:12:47;8.52;;;3.00;;
66112;SDS011;52893;52.870;5.822;2022-08-21T00:15:17;5.93;;;3.30;;
66112;SDS011;52893;52.870;5.822;2022-08-21T00:17:46;7.95;;;3.00;;
66112;SDS011;52893;52.870;5.822;2022-08-21T00:20:14;5.43;;;3.03;;
66112;SDS011;52893;52.870;5.822;2022-08-21T00:22:43;5.07;;;2.45;;
66112;SDS011;52893;52.870;5.822;2022-08-21T00:25:10;8.23;;;3.42;;
66112;SDS011;52893;52.870;5.822;2022-08-21T00:27:38;9.30;;;3.03;;
66112;SDS011;52893;52.870;5.822;2022-08-21T00:30:05;9.02;;;3.03;;
66112;SDS011;52893;52.870;5.822;2022-08-21T00:32:36;8.60;;;3.70;;
66112;SDS011;52893;52.870;5.822;2022-08-21T00:35:04;7.95;;;3.03;;
66112;SDS011;52893;52.870;5.822;2022-08-21T00:37:33;12.35;;;3.10;;
66112;SDS011;52893;52.870;5.822;2022-08-21T00:40:00;9.95;;;3.30;;
66112;SDS011;52893;52.870;5.822;2022-08-21T00:42:28;8.35;;;3.20;;
66112;SDS011;52893;52.870;5.822;2022-08-21T00:44:56;5.93;;;3.20;;
66112;SDS011;52893;52.870;5.822;2022-08-21T00:47:23;8.98;;;3.58;;
66112;SDS011;52893;52.870;5.822;2022-08-21T00:49:52;7.57;;;3.15;;
66112;SDS011;52893;52.870;5.822;2022-08-21T00:52:21;4.95;;;3.35;;
66112;SDS011;52893;52.870;5.822;2022-08-21T00:54:52;12.77;;;3.60;;
66112;SDS011;52893;52.870;5.822;2022-08-21T00:57:22;7.70;;;3.28;;
66112;SDS011;52893;52.870;5.822;2022-08-21T00:59:53;10.52;;;3.60;;
66112;SDS011;52893;52.870;5.822;2022-08-21T01:02:23;13.35;;;4.20;;
66112;SDS011;52893;52.870;5.822;2022-08-21T01:04:52;7.22;;;3.50;;
66112;SDS011;52893;52.870;5.822;2022-08-21T01:07:20;5.93;;;3.58;;
66112;SDS011;52893;52.870;5.822;2022-08-21T01:09:47;6.85;;;3.70;;
66112;SDS011;52893;52.870;5.822;2022-08-21T01:12:15;12.50;;;4.10;;
66112;SDS011;52893;52.870;5.822;2022-08-21T01:14:43;13.88;;;4.53;;
66112;SDS011;52893;52.870;5.822;2022-08-21T01:17:11;10.15;;;3.90;;
66112;SDS011;52893;52.870;5.822;2022-08-21T01:19:41;9.18;;;3.90;;
66112;SDS011;52893;52.870;5.822;2022-08-21T01:22:09;11.90;;;3.85;;
66112;SDS011;52893;52.870;5.822;2022-08-21T01:24:36;10.10;;;3.65;;
66112;SDS011;52893;52.870;5.822;2022-08-21T01:27:04;11.93;;;3.45;;
66112;SDS011;52893;52.870;5.822;2022-08-21T01:29:32;10.80;;;3.78;;
66112;SDS011;52893;52.870;5.822;2022-08-21T01:32:03;8.15;;;3.47;;
66112;SDS011;52893;52.870;5.822;2022-08-21T01:34:33;9.63;;;3.70;;
66112;SDS011;52893;52.870;5.822;2022-08-21T01:37:03;11.27;;;4.00;;
66112;SDS011;52893;52.870;5.822;2022-08-21T01:39:31;11.30;;;3.90;;
66112;SDS011;52893;52.870;5.822;2022-08-21T01:41:59;7.00;;;3.55;;
66112;SDS011;52893;52.870;5.822;2022-08-21T01:44:26;10.75;;;4.43;;
66112;SDS011;52893;52.870;5.822;2022-08-21T01:46:54;13.15;;;3.92;;
66112;SDS011;52893;52.870;5.822;2022-08-21T01:49:23;11.32;;;4.00;;
66112;SDS011;52893;52.870;5.822;2022-08-21T01:51:51;8.82;;;4.15;;
66112;SDS011;52893;52.870;5.822;2022-08-21T01:54:18;11.85;;;4.50;;
66112;SDS011;52893;52.870;5.822;2022-08-21T01:56:47;12.70;;;4.15;;
66112;SDS011;52893;52.870;5.822;2022-08-21T01:59:17;10.25;;;3.70;;
66112;SDS011;52893;52.870;5.822;2022-08-21T02:01:45;8.63;;;4.00;;
66112;SDS011;52893;52.870;5.822;2022-08-21T02:04:12;18.60;;;4.53;;
66112;SDS011;52893;52.870;5.822;2022-08-21T02:06:39;13.90;;;4.40;;
66112;SDS011;52893;52.870;5.822;2022-08-21T02:09:07;9.65;;;4.15;;
66112;SDS011;52893;52.870;5.822;2022-08-21T02:11:35;9.20;;;4.07;;
66112;SDS011;52893;52.870;5.822;2022-08-21T02:14:07;10.05;;;4.97;;
66112;SDS011;52893;52.870;5.822;2022-08-21T02:16:35;11.63;;;4.53;;
66112;SDS011;52893;52.870;5.822;2022-08-21T02:19:02;8.38;;;4.07;;
66112;SDS011;52893;52.870;5.822;2022-08-21T02:21:29;12.80;;;4.53;;
66112;SDS011;52893;52.870;5.822;2022-08-21T02:23:57;12.63;;;4.68;;
66112;SDS011;52893;52.870;5.822;2022-08-21T02:26:25;8.95;;;4.30;;
66112;SDS011;52893;52.870;5.822;2022-08-21T02:28:53;10.10;;;4.40;;
66112;SDS011;52893;52.870;5.822;2022-08-21T02:31:21;11.88;;;4.75;;
66112;SDS011;52893;52.870;5.822;2022-08-21T02:33:48;11.80;;;4.85;;
66112;SDS011;52893;52.870;5.822;2022-08-21T02:36:15;12.18;;;4.75;;
66112;SDS011;52893;52.870;5.822;2022-08-21T02:38:42;8.02;;;4.30;;
66112;SDS011;52893;52.870;5.822;2022-08-21T02:41:11;10.18;;;4.32;;
66112;SDS011;52893;52.870;5.822;2022-08-21T02:43:40;16.10;;;5.15;;
66112;SDS011;52893;52.870;5.822;2022-08-21T02:46:08;14.80;;;4.90;;
66112;SDS011;52893;52.870;5.822;2022-08-21T02:48:37;12.52;;;4.53;;
66112;SDS011;52893;52.870;5.822;2022-08-21T02:51:06;17.27;;;4.90;;
66112;SDS011;52893;52.870;5.822;2022-08-21T02:53:35;8.45;;;4.93;;
66112;SDS011;52893;52.870;5.822;2022-08-21T02:56:05;12.48;;;4.97;;
66112;SDS011;52893;52.870;5.822;2022-08-21T02:58:35;13.00;;;5.03;;
66112;SDS011;52893;52.870;5.822;2022-08-21T03:01:05;12.57;;;4.97;;
66112;SDS011;52893;52.870;5.822;2022-08-21T03:03:35;11.25;;;5.13;;
66112;SDS011;52893;52.870;5.822;2022-08-21T03:06:05;9.82;;;5.07;;
66112;SDS011;52893;52.870;5.822;2022-08-21T03:08:34;12.75;;;5.28;;
66112;SDS011;52893;52.870;5.822;2022-08-21T03:11:01;8.48;;;4.78;;
66112;SDS011;52893;52.870;5.822;2022-08-21T03:13:29;9.90;;;4.88;;
66112;SDS011;52893;52.870;5.822;2022-08-21T03:15:56;15.50;;;5.32;;
66112;SDS011;52893;52.870;5.822;2022-08-21T03:18:23;8.52;;;5.00;;
66112;SDS011;52893;52.870;5.822;2022-08-21T03:20:50;10.57;;;5.50;;
66112;SDS011;52893;52.870;5.822;2022-08-21T03:23:19;11.88;;;6.05;;
66112;SDS011;52893;52.870;5.822;2022-08-21T03:25:46;18.52;;;6.38;;
66112;SDS011;52893;52.870;5.822;2022-08-21T03:28:18;10.98;;;5.38;;
66112;SDS011;52893;52.870;5.822;2022-08-21T03:30:48;13.00;;;5.88;;
66112;SDS011;52893;52.870;5.822;2022-08-21T03:33:16;12.30;;;6.28;;
66112;SDS011;52893;52.870;5.822;2022-08-21T03:35:48;9.90;;;5.70;;
66112;SDS011;52893;52.870;5.822;2022-08-21T03:38:22;13.90;;;6.28;;
66112;SDS011;52893;52.870;5.822;2022-08-21T03:40:49;12.93;;;6.18;;
66112;SDS011;52893;52.870;5.822;2022-08-21T03:43:16;9.70;;;6.20;;
66112;SDS011;52893;52.870;5.822;2022-08-21T03:45:44;13.98;;;6.57;;
66112;SDS011;52893;52.870;5.822;2022-08-21T03:48:11;14.75;;;5.90;;
66112;SDS011;52893;52.870;5.822;2022-08-21T03:50:39;14.13;;;6.70;;
66112;SDS011;52893;52.870;5.822;2022-08-21T03:53:09;13.07;;;6.32;;
66112;SDS011;52893;52.870;5.822;2022-08-21T03:55:39;18.35;;;6.30;;
66112;SDS011;52893;52.870;5.822;2022-08-21T03:58:06;15.45;;;6.38;;
66112;SDS011;52893;52.870;5.822;2022-08-21T04:00:33;12.50;;;6.70;;
66112;SDS011;52893;52.870;5.822;2022-08-21T04:03:01;14.38;;;6.57;;
66112;SDS011;52893;52.870;5.822;2022-08-21T04:05:28;20.33;;;6.78;;
66112;SDS011;52893;52.870;5.822;2022-08-21T04:07:56;13.40;;;6.22;;
66112;SDS011;52893;52.870;5.822;2022-08-21T04:10:25;15.45;;;6.60;;
66112;SDS011;52893;52.870;5.822;2022-08-21T04:12:54;14.32;;;6.70;;
66112;SDS011;52893;52.870;5.822;2022-08-21T04:15:22;9.02;;;6.47;;
66112;SDS011;52893;52.870;5.822;2022-08-21T04:17:51;20.13;;;7.78;;
66112;SDS011;52893;52.870;5.822;2022-08-21T04:20:19;16.85;;;6.25;;
66112;SDS011;52893;52.870;5.822;2022-08-21T04:22:47;15.05;;;7.60;;
66112;SDS011;52893;52.870;5.822;2022-08-21T04:25:16;16.35;;;6.65;;
66112;SDS011;52893;52.870;5.822;2022-08-21T04:27:44;15.75;;;6.05;;
66112;SDS011;52893;52.870;5.822;2022-08-21T04:30:13;11.73;;;6.68;;
66112;SDS011;52893;52.870;5.822;2022-08-21T04:32:42;11.65;;;6.13;;
66112;SDS011;52893;52.870;5.822;2022-08-21T04:35:10;19.25;;;6.57;;
66112;SDS011;52893;52.870;5.822;2022-08-21T04:37:38;16.67;;;6.47;;
66112;SDS011;52893;52.870;5.822;2022-08-21T04:40:06;12.93;;;6.55;;
66112;SDS011;52893;52.870;5.822;2022-08-21T04:42:40;19.83;;;6.93;;
66112;SDS011;52893;52.870;5.822;2022-08-21T04:45:08;20.25;;;6.88;;
66112;SDS011;52893;52.870;5.822;2022-08-21T04:47:37;14.57;;;6.28;;
66112;SDS011;52893;52.870;5.822;2022-08-21T04:50:04;15.90;;;7.13;;
66112;SDS011;52893;52.870;5.822;2022-08-21T04:52:32;20.45;;;6.35;;
66112;SDS011;52893;52.870;5.822;2022-08-21T04:54:59;12.15;;;6.05;;
66112;SDS011;52893;52.870;5.822;2022-08-21T04:57:27;13.73;;;6.30;;
66112;SDS011;52893;52.870;5.822;2022-08-21T04:59:54;16.25;;;6.88;;
66112;SDS011;52893;52.870;5.822;2022-08-21T05:02:22;12.10;;;6.50;;
66112;SDS011;52893;52.870;5.822;2022-08-21T05:04:51;15.13;;;6.50;;
66112;SDS011;52893;52.870;5.822;2022-08-21T05:07:22;15.17;;;7.30;;
66112;SDS011;52893;52.870;5.822;2022-08-21T05:09:53;12.47;;;7.13;;
66112;SDS011;52893;52.870;5.822;2022-08-21T05:12:20;15.77;;;7.05;;
66112;SDS011;52893;52.870;5.822;2022-08-21T05:14:48;14.48;;;7.03;;
66112;SDS011;52893;52.870;5.822;2022-08-21T05:17:15;17.20;;;6.53;;
66112;SDS011;52893;52.870;5.822;2022-08-21T05:19:42;12.63;;;6.70;;
66112;SDS011;52893;52.870;5.822;2022-08-21T05:22:11;15.35;;;7.05;;
66112;SDS011;52893;52.870;5.822;2022-08-21T05:24:38;14.95;;;7.18;;
66112;SDS011;52893;52.870;5.822;2022-08-21T05:27:05;14.07;;;6.80;;
66112;SDS011;52893;52.870;5.822;2022-08-21T05:29:32;16.80;;;6.57;;
66112;SDS011;52893;52.870;5.822;2022-08-21T05:32:00;12.00;;;6.22;;
66112;SDS011;52893;52.870;5.822;2022-08-21T05:34:27;11.57;;;6.10;;
66112;SDS011;52893;52.870;5.822;2022-08-21T05:36:54;17.75;;;6.13;;
66112;SDS011;52893;52.870;5.822;2022-08-21T05:39:22;20.05;;;6.22;;
66112;SDS011;52893;52.870;5.822;2022-08-21T05:41:49;13.35;;;6.35;;
66112;SDS011;52893;52.870;5.822;2022-08-21T05:44:17;11.45;;;6.05;;
66112;SDS011;52893;52.870;5.822;2022-08-21T05:46:44;20.98;;;6.43;;
66112;SDS011;52893;52.870;5.822;2022-08-21T05:49:11;16.60;;;6.00;;
66112;SDS011;52893;52.870;5.822;2022-08-21T05:51:39;11.95;;;5.18;;
66112;SDS011;52893;52.870;5.822;2022-08-21T05:54:06;14.32;;;5.80;;
66112;SDS011;52893;52.870;5.822;2022-08-21T05:56:35;12.05;;;5.40;;
66112;SDS011;52893;52.870;5.822;2022-08-21T05:59:02;16.00;;;6.43;;
66112;SDS011;52893;52.870;5.822;2022-08-21T06:01:29;16.13;;;6.13;;
66112;SDS011;52893;52.870;5.822;2022-08-21T06:03:57;16.55;;;5.68;;
66112;SDS011;52893;52.870;5.822;2022-08-21T06:06:24;14.30;;;5.35;;
66112;SDS011;52893;52.870;5.822;2022-08-21T06:08:51;21.52;;;6.70;;
66112;SDS011;52893;52.870;5.822;2022-08-21T06:11:19;15.32;;;5.80;;
66112;SDS011;52893;52.870;5.822;2022-08-21T06:13:47;16.65;;;6.10;;
66112;SDS011;52893;52.870;5.822;2022-08-21T06:16:15;11.10;;;4.97;;
66112;SDS011;52893;52.870;5.822;2022-08-21T06:18:43;12.73;;;5.28;;
66112;SDS011;52893;52.870;5.822;2022-08-21T06:21:12;10.00;;;4.82;;
66112;SDS011;52893;52.870;5.822;2022-08-21T06:23:39;9.38;;;4.22;;
66112;SDS011;52893;52.870;5.822;2022-08-21T06:26:07;14.85;;;5.72;;
66112;SDS011;52893;52.870;5.822;2022-08-21T06:28:35;15.88;;;5.50;;
66112;SDS011;52893;52.870;5.822;2022-08-21T06:31:10;12.23;;;4.97;;
66112;SDS011;52893;52.870;5.822;2022-08-21T06:33:38;17.40;;;4.15;;
66112;SDS011;52893;52.870;5.822;2022-08-21T06:36:06;15.10;;;5.20;;
66112;SDS011;52893;52.870;5.822;2022-08-21T06:38:33;9.30;;;4.13;;
66112;SDS011;52893;52.870;5.822;2022-08-21T06:41:00;12.32;;;4.68;;
66112;SDS011;52893;52.870;5.822;2022-08-21T06:43:27;13.05;;;3.95;;
66112;SDS011;52893;52.870;5.822;2022-08-21T06:45:54;10.73;;;4.28;;
66112;SDS011;52893;52.870;5.822;2022-08-21T06:48:23;11.60;;;4.05;;
66112;SDS011;52893;52.870;5.822;2022-08-21T06:50:50;14.57;;;3.70;;
66112;SDS011;52893;52.870;5.822;2022-08-21T06:53:18;8.57;;;3.40;;
66112;SDS011;52893;52.870;5.822;2022-08-21T06:55:47;10.18;;;3.20;;
66112;SDS011;52893;52.870;5.822;2022-08-21T06:58:14;7.32;;;3.10;;
66112;SDS011;52893;52.870;5.822;2022-08-21T07:00:42;11.02;;;4.07;;
66112;SDS011;52893;52.870;5.822;2022-08-21T07:03:16;10.05;;;3.75;;
66112;SDS011;52893;52.870;5.822;2022-08-21T07:05:46;11.63;;;3.58;;
66112;SDS011;52893;52.870;5.822;2022-08-21T07:08:13;8.43;;;3.00;;
66112;SDS011;52893;52.870;5.822;2022-08-21T07:10:40;11.68;;;2.85;;
66112;SDS011;52893;52.870;5.822;2022-08-21T07:13:07;6.47;;;2.03;;
66112;SDS011;52893;52.870;5.822;2022-08-21T07:15:34;12.00;;;3.60;;
66112;SDS011;52893;52.870;5.822;2022-08-21T07:18:01;10.50;;;3.30;;
66112;SDS011;52893;52.870;5.822;2022-08-21T07:20:29;10.73;;;2.92;;
66112;SDS011;52893;52.870;5.822;2022-08-21T07:22:59;9.77;;;3.00;;
66112;SDS011;52893;52.870;5.822;2022-08-21T07:27:56;13.30;;;3.28;;
66112;SDS011;52893;52.870;5.822;2022-08-21T07:30:24;16.58;;;4.53;;
66112;SDS011;52893;52.870;5.822;2022-08-21T07:32:53;14.27;;;3.67;;
66112;SDS011;52893;52.870;5.822;2022-08-21T07:35:21;6.97;;;2.67;;
66112;SDS011;52893;52.870;5.822;2022-08-21T07:37:49;11.52;;;3.28;;
66112;SDS011;52893;52.870;5.822;2022-08-21T07:40:18;7.00;;;2.30;;
66112;SDS011;52893;52.870;5.822;2022-08-21T07:42:46;12.45;;;3.05;;
66112;SDS011;52893;52.870;5.822;2022-08-21T07:45:17;16.58;;;3.22;;
66112;SDS011;52893;52.870;5.822;2022-08-21T07:47:46;13.98;;;3.28;;
66112;SDS011;52893;52.870;5.822;2022-08-21T07:50:14;10.57;;;3.70;;
66112;SDS011;52893;52.870;5.822;2022-08-21T07:52:41;10.60;;;2.70;;
66112;SDS011;52893;52.870;5.822;2022-08-21T07:55:10;11.75;;;3.20;;
66112;SDS011;52893;52.870;5.822;2022-08-21T07:57:40;10.65;;;3.20;;
66112;SDS011;52893;52.870;5.822;2022-08-21T08:00:09;6.18;;;2.38;;
66112;SDS011;52893;52.870;5.822;2022-08-21T08:02:39;10.13;;;2.97;;
66112;SDS011;52893;52.870;5.822;2022-08-21T08:05:07;11.48;;;3.05;;
66112;SDS011;52893;52.870;5.822;2022-08-21T08:07:36;12.15;;;3.28;;
66112;SDS011;52893;52.870;5.822;2022-08-21T08:10:05;9.90;;;2.30;;
66112;SDS011;52893;52.870;5.822;2022-08-21T08:12:34;13.32;;;2.90;;
66112;SDS011;52893;52.870;5.822;2022-08-21T08:15:06;16.42;;;2.70;;
66112;SDS011;52893;52.870;5.822;2022-08-21T08:17:34;6.35;;;1.50;;
66112;SDS011;52893;52.870;5.822;2022-08-21T08:20:03;5.07;;;2.20;;
66112;SDS011;52893;52.870;5.822;2022-08-21T08:22:31;17.85;;;3.00;;
66112;SDS011;52893;52.870;5.822;2022-08-21T08:24:58;8.23;;;2.50;;
66112;SDS011;52893;52.870;5.822;2022-08-21T08:27:25;11.93;;;3.05;;
66112;SDS011;52893;52.870;5.822;2022-08-21T08:29:52;10.40;;;2.50;;
66112;SDS011;52893;52.870;5.822;2022-08-21T08:32:22;16.67;;;2.63;;
66112;SDS011;52893;52.870;5.822;2022-08-21T08:34:49;10.88;;;2.80;;
66112;SDS011;52893;52.870;5.822;2022-08-21T08:37:18;13.07;;;2.78;;
66112;SDS011;52893;52.870;5.822;2022-08-21T08:39:47;11.77;;;2.70;;
66112;SDS011;52893;52.870;5.822;2022-08-21T08:42:15;17.00;;;3.58;;
66112;SDS011;52893;52.870;5.822;2022-08-21T08:44:46;12.30;;;2.28;;
66112;SDS011;52893;52.870;5.822;2022-08-21T08:47:16;9.32;;;2.70;;
66112;SDS011;52893;52.870;5.822;2022-08-21T08:49:47;8.68;;;2.15;;
66112;SDS011;52893;52.870;5.822;2022-08-21T08:52:20;4.88;;;1.27;;
66112;SDS011;52893;52.870;5.822;2022-08-21T08:54:55;5.32;;;1.77;;
66112;SDS011;52893;52.870;5.822;2022-08-21T08:57:28;10.07;;;2.25;;
66112;SDS011;52893;52.870;5.822;2022-08-21T08:59:56;20.35;;;3.10;;
66112;SDS011;52893;52.870;5.822;2022-08-21T09:02:26;11.70;;;2.72;;
66112;SDS011;52893;52.870;5.822;2022-08-21T09:04:55;10.68;;;2.05;;
66112;SDS011;52893;52.870;5.822;2022-08-21T09:07:25;14.48;;;2.42;;
66112;SDS011;52893;52.870;5.822;2022-08-21T09:10:04;9.73;;;3.00;;
66112;SDS011;52893;52.870;5.822;2022-08-21T09:12:39;16.63;;;2.75;;
66112;SDS011;52893;52.870;5.822;2022-08-21T09:15:15;9.05;;;2.35;;
66112;SDS011;52893;52.870;5.822;2022-08-21T09:18:03;11.70;;;2.92;;
66112;SDS011;52893;52.870;5.822;2022-08-21T09:20:47;22.03;;;3.60;;
66112;SDS011;52893;52.870;5.822;2022-08-21T09:23:25;7.50;;;2.20;;
66112;SDS011;52893;52.870;5.822;2022-08-21T09:26:05;8.30;;;2.38;;
66112;SDS011;52893;52.870;5.822;2022-08-21T09:28:37;11.20;;;2.50;;
66112;SDS011;52893;52.870;5.822;2022-08-21T09:31:07;15.95;;;3.10;;
66112;SDS011;52893;52.870;5.822;2022-08-21T09:33:37;10.15;;;2.40;;
66112;SDS011;52893;52.870;5.822;2022-08-21T09:36:06;8.50;;;2.20;;
66112;SDS011;52893;52.870;5.822;2022-08-21T09:38:34;7.45;;;2.15;;
66112;SDS011;52893;52.870;5.822;2022-08-21T09:41:04;7.65;;;2.00;;
66112;SDS011;52893;52.870;5.822;2022-08-21T09:43:34;13.18;;;2.97;;
66112;SDS011;52893;52.870;5.822;2022-08-21T09:46:06;13.15;;;2.08;;
66112;SDS011;52893;52.870;5.822;2022-08-21T09:48:40;10.18;;;2.08;;
66112;SDS011;52893;52.870;5.822;2022-08-21T09:51:12;12.32;;;2.38;;
66112;SDS011;52893;52.870;5.822;2022-08-21T09:53:43;9.27;;;2.33;;
66112;SDS011;52893;52.870;5.822;2022-08-21T09:56:17;17.83;;;2.80;;
66112;SDS011;52893;52.870;5.822;2022-08-21T09:59:12;10.68;;;2.50;;
66112;SDS011;52893;52.870;5.822;2022-08-21T10:01:42;12.55;;;2.78;;
66112;SDS011;52893;52.870;5.822;2022-08-21T10:04:11;7.47;;;1.95;;
66112;SDS011;52893;52.870;5.822;2022-08-21T10:06:40;11.73;;;2.50;;
66112;SDS011;52893;52.870;5.822;2022-08-21T10:09:08;9.38;;;1.90;;
66112;SDS011;52893;52.870;5.822;2022-08-21T10:11:37;11.32;;;2.13;;
66112;SDS011;52893;52.870;5.822;2022-08-21T10:14:10;9.38;;;2.22;;
66112;SDS011;52893;52.870;5.822;2022-08-21T10:16:48;14.95;;;2.38;;
66112;SDS011;52893;52.870;5.822;2022-08-21T10:19:25;12.38;;;2.58;;
66112;SDS011;52893;52.870;5.822;2022-08-21T10:22:03;12.45;;;2.67;;
66112;SDS011;52893;52.870;5.822;2022-08-21T10:24:42;11.60;;;2.78;;
66112;SDS011;52893;52.870;5.822;2022-08-21T10:27:16;13.63;;;2.92;;
66112;SDS011;52893;52.870;5.822;2022-08-21T10:29:55;10.00;;;2.63;;
66112;SDS011;52893;52.870;5.822;2022-08-21T10:36:09;5.97;;;2.03;;
66112;SDS011;52893;52.870;5.822;2022-08-21T10:41:38;6.97;;;2.40;;
66112;SDS011;52893;52.870;5.822;2022-08-21T10:44:17;9.45;;;2.25;;
66112;SDS011;52893;52.870;5.822;2022-08-21T10:46:53;10.15;;;2.47;;
66112;SDS011;52893;52.870;5.822;2022-08-21T10:49:25;11.70;;;2.85;;
66112;SDS011;52893;52.870;5.822;2022-08-21T10:52:09;10.45;;;2.88;;
66112;SDS011;52893;52.870;5.822;2022-08-21T10:54:50;8.90;;;1.75;;
66112;SDS011;52893;52.870;5.822;2022-08-21T10:57:24;4.82;;;1.63;;
66112;SDS011;52893;52.870;5.822;2022-08-21T11:00:03;8.65;;;2.03;;
66112;SDS011;52893;52.870;5.822;2022-08-21T11:02:35;5.13;;;1.95;;
66112;SDS011;52893;52.870;5.822;2022-08-21T11:05:08;11.07;;;2.25;;
66112;SDS011;52893;52.870;5.822;2022-08-21T11:07:39;6.18;;;1.50;;
66112;SDS011;52893;52.870;5.822;2022-08-21T11:10:14;12.18;;;2.38;;
66112;SDS011;52893;52.870;5.822;2022-08-21T11:12:46;11.85;;;2.28;;
66112;SDS011;52893;52.870;5.822;2022-08-21T11:15:23;7.05;;;2.05;;
66112;SDS011;52893;52.870;5.822;2022-08-21T11:17:54;4.90;;;1.58;;
66112;SDS011;52893;52.870;5.822;2022-08-21T11:20:29;14.40;;;2.53;;
66112;SDS011;52893;52.870;5.822;2022-08-21T11:23:01;10.25;;;2.47;;
66112;SDS011;52893;52.870;5.822;2022-08-21T11:25:35;12.32;;;2.78;;
66112;SDS011;52893;52.870;5.822;2022-08-21T11:28:08;8.85;;;1.73;;
66112;SDS011;52893;52.870;5.822;2022-08-21T11:30:44;9.68;;;2.58;;
66112;SDS011;52893;52.870;5.822;2022-08-21T11:33:24;10.63;;;2.47;;
66112;SDS011;52893;52.870;5.822;2022-08-21T11:36:09;12.82;;;3.33;;
66112;SDS011;52893;52.870;5.822;2022-08-21T11:38:42;15.43;;;2.25;;
66112;SDS011;52893;52.870;5.822;2022-08-21T11:41:22;9.38;;;2.50;;
66112;SDS011;52893;52.870;5.822;2022-08-21T11:43:56;10.90;;;2.15;;
66112;SDS011;52893;52.870;5.822;2022-08-21T11:46:33;9.82;;;2.22;;
66112;SDS011;52893;52.870;5.822;2022-08-21T11:49:10;10.40;;;1.63;;
66112;SDS011;52893;52.870;5.822;2022-08-21T11:51:50;14.55;;;2.38;;
66112;SDS011;52893;52.870;5.822;2022-08-21T11:54:25;8.85;;;1.80;;
66112;SDS011;52893;52.870;5.822;2022-08-21T11:56:57;9.00;;;1.67;;
66112;SDS011;52893;52.870;5.822;2022-08-21T11:59:32;11.38;;;2.47;;
66112;SDS011;52893;52.870;5.822;2022-08-21T12:02:03;10.77;;;2.25;;
66112;SDS011;52893;52.870;5.822;2022-08-21T12:04:42;8.10;;;2.00;;
66112;SDS011;52893;52.870;5.822;2022-08-21T12:07:14;7.30;;;1.60;;
66112;SDS011;52893;52.870;5.822;2022-08-21T12:09:51;8.60;;;1.90;;
66112;SDS011;52893;52.870;5.822;2022-08-21T12:12:25;7.18;;;1.50;;
66112;SDS011;52893;52.870;5.822;2022-08-21T12:15:05;6.82;;;1.60;;
66112;SDS011;52893;52.870;5.822;2022-08-21T12:17:54;7.28;;;1.88;;
66112;SDS011;52893;52.870;5.822;2022-08-21T12:20:26;11.45;;;2.30;;
66112;SDS011;52893;52.870;5.822;2022-08-21T12:23:03;9.82;;;2.25;;
66112;SDS011;52893;52.870;5.822;2022-08-21T12:25:36;7.57;;;2.30;;
66112;SDS011;52893;52.870;5.822;2022-08-21T12:28:08;7.25;;;2.00;;
66112;SDS011;52893;52.870;5.822;2022-08-21T12:30:38;11.35;;;2.38;;
66112;SDS011;52893;52.870;5.822;2022-08-21T12:33:18;12.40;;;1.90;;
66112;SDS011;52893;52.870;5.822;2022-08-21T12:35:49;10.88;;;2.42;;
66112;SDS011;52893;52.870;5.822;2022-08-21T12:38:20;10.55;;;2.10;;
66112;SDS011;52893;52.870;5.822;2022-08-21T12:40:50;8.23;;;2.28;;
66112;SDS011;52893;52.870;5.822;2022-08-21T12:43:24;12.30;;;2.03;;
66112;SDS011;52893;52.870;5.822;2022-08-21T12:45:55;8.73;;;2.00;;
66112;SDS011;52893;52.870;5.822;2022-08-21T12:48:28;7.82;;;1.90;;
66112;SDS011;52893;52.870;5.822;2022-08-21T12:51:05;13.48;;;2.10;;
66112;SDS011;52893;52.870;5.822;2022-08-21T12:53:41;5.28;;;1.55;;
66112;SDS011;52893;52.870;5.822;2022-08-21T12:56:11;9.15;;;1.92;;
66112;SDS011;52893;52.870;5.822;2022-08-21T12:58:44;5.50;;;1.30;;
66112;SDS011;52893;52.870;5.822;2022-08-21T13:01:15;6.60;;;1.48;;
66112;SDS011;52893;52.870;5.822;2022-08-21T13:03:52;9.32;;;1.83;;
66112;SDS011;52893;52.870;5.822;2022-08-21T13:06:22;7.78;;;1.80;;
66112;SDS011;52893;52.870;5.822;2022-08-21T13:08:54;6.22;;;1.60;;
66112;SDS011;52893;52.870;5.822;2022-08-21T13:11:25;5.57;;;1.50;;
66112;SDS011;52893;52.870;5.822;2022-08-21T13:13:53;6.28;;;1.80;;
66112;SDS011;52893;52.870;5.822;2022-08-21T13:16:22;8.20;;;1.55;;
66112;SDS011;52893;52.870;5.822;2022-08-21T13:18:54;12.35;;;1.30;;
66112;SDS011;52893;52.870;5.822;2022-08-21T13:21:26;8.48;;;1.20;;
66112;SDS011;52893;52.870;5.822;2022-08-21T13:24:06;4.22;;;1.40;;
66112;SDS011;52893;52.870;5.822;2022-08-21T13:26:39;6.72;;;1.70;;
66112;SDS011;52893;52.870;5.822;2022-08-21T13:29:08;5.10;;;1.35;;
66112;SDS011;52893;52.870;5.822;2022-08-21T13:31:38;4.25;;;1.42;;
66112;SDS011;52893;52.870;5.822;2022-08-21T13:34:08;4.05;;;1.10;;
66112;SDS011;52893;52.870;5.822;2022-08-21T13:36:39;10.30;;;1.42;;
66112;SDS011;52893;52.870;5.822;2022-08-21T13:39:09;3.03;;;1.25;;
66112;SDS011;52893;52.870;5.822;2022-08-21T13:41:40;5.32;;;1.48;;
66112;SDS011;52893;52.870;5.822;2022-08-21T13:44:15;6.88;;;1.48;;
66112;SDS011;52893;52.870;5.822;2022-08-21T13:46:45;4.18;;;1.15;;
66112;SDS011;52893;52.870;5.822;2022-08-21T13:49:14;5.05;;;1.13;;
66112;SDS011;52893;52.870;5.822;2022-08-21T13:51:44;4.72;;;1.33;;
66112;SDS011;52893;52.870;5.822;2022-08-21T13:54:14;5.97;;;1.70;;
66112;SDS011;52893;52.870;5.822;2022-08-21T13:56:43;8.32;;;1.45;;
66112;SDS011;52893;52.870;5.822;2022-08-21T13:59:13;5.97;;;1.30;;
66112;SDS011;52893;52.870;5.822;2022-08-21T14:01:53;7.57;;;1.33;;
66112;SDS011;52893;52.870;5.822;2022-08-21T14:04:25;7.70;;;1.55;;
66112;SDS011;52893;52.870;5.822;2022-08-21T14:06:58;4.13;;;1.60;;
66112;SDS011;52893;52.870;5.822;2022-08-21T14:09:26;6.85;;;1.70;;
66112;SDS011;52893;52.870;5.822;2022-08-21T14:11:56;5.90;;;1.55;;
66112;SDS011;52893;52.870;5.822;2022-08-21T14:14:28;9.15;;;1.30;;
66112;SDS011;52893;52.870;5.822;2022-08-21T14:16:58;5.35;;;1.35;;
66112;SDS011;52893;52.870;5.822;2022-08-21T14:19:34;4.47;;;1.30;;
66112;SDS011;52893;52.870;5.822;2022-08-21T14:24:49;5.53;;;1.33;;
66112;SDS011;52893;52.870;5.822;2022-08-21T14:27:26;6.53;;;1.42;;
66112;SDS011;52893;52.870;5.822;2022-08-21T14:29:58;4.35;;;1.50;;
66112;SDS011;52893;52.870;5.822;2022-08-21T14:32:27;3.95;;;1.20;;
66112;SDS011;52893;52.870;5.822;2022-08-21T14:34:56;6.05;;;1.25;;
66112;SDS011;52893;52.870;5.822;2022-08-21T14:37:23;5.03;;;1.20;;
66112;SDS011;52893;52.870;5.822;2022-08-21T14:39:51;8.20;;;1.65;;
66112;SDS011;52893;52.870;5.822;2022-08-21T14:42:18;6.65;;;1.40;;
66112;SDS011;52893;52.870;5.822;2022-08-21T14:44:45;5.07;;;1.05;;
66112;SDS011;52893;52.870;5.822;2022-08-21T14:47:14;8.77;;;1.20;;
66112;SDS011;52893;52.870;5.822;2022-08-21T14:49:41;4.22;;;1.23;;
66112;SDS011;52893;52.870;5.822;2022-08-21T14:52:08;6.32;;;1.27;;
66112;SDS011;52893;52.870;5.822;2022-08-21T14:54:36;6.82;;;1.52;;
66112;SDS011;52893;52.870;5.822;2022-08-21T14:57:04;5.82;;;1.42;;
66112;SDS011;52893;52.870;5.822;2022-08-21T14:59:34;6.15;;;1.02;;
66112;SDS011;52893;52.870;5.822;2022-08-21T15:02:02;6.03;;;1.38;;
66112;SDS011;52893;52.870;5.822;2022-08-21T15:04:31;1.98;;;0.90;;
66112;SDS011;52893;52.870;5.822;2022-08-21T15:06:59;6.18;;;1.38;;
66112;SDS011;52893;52.870;5.822;2022-08-21T15:09:26;8.98;;;1.45;;